sensor_id;sensor_type;location;lat;lon;timestamp;P1;durP1;ratioP1;P2;durP2;ratioP2
26062;SDS011;13837;48.562;12.108;2024-02-26T00:00:12;52.22;;;47.92;;
26062;SDS011;13837;48.562;12.108;2024-02-26T00:02:38;53.42;;;48.83;;
26062;SDS011;13837;48.562;12.108;2024-02-26T00:05:05;52.03;;;48.08;;
26062;SDS011;13837;48.562;12.108;2024-02-26T00:07:31;52.45;;;48.17;;
26062;SDS011;13837;48.562;12.108;2024-02-26T00:09:58;53.85;;;49.28;;
26062;SDS011;13837;48.562;12.108;2024-02-26T00:12:24;53.92;;;49.35;;
26062;SDS011;13837;48.562;12.108;2024-02-26T00:14:50;53.72;;;49.35;;
26062;SDS011;13837;48.562;12.108;2024-02-26T00:17:17;52.45;;;48.30;;
26062;SDS011;13837;48.562;12.108;2024-02-26T00:19:43;53.25;;;49.03;;
26062;SDS011;13837;48.562;12.108;2024-02-26T00:22:09;52.97;;;48.75;;
26062;SDS011;13837;48.562;12.108;2024-02-26T00:24:35;54.85;;;50.10;;
26062;SDS011;13837;48.562;12.108;2024-02-26T00:27:01;55.70;;;50.75;;
26062;SDS011;13837;48.562;12.108;2024-02-26T00:29:28;54.58;;;49.97;;
26062;SDS011;13837;48.562;12.108;2024-02-26T00:31:54;54.03;;;49.50;;
26062;SDS011;13837;48.562;12.108;2024-02-26T00:34:20;53.45;;;49.08;;
26062;SDS011;13837;48.562;12.108;2024-02-26T00:36:46;53.63;;;49.25;;
26062;SDS011;13837;48.562;12.108;2024-02-26T00:39:12;53.75;;;49.50;;
26062;SDS011;13837;48.562;12.108;2024-02-26T00:41:39;54.92;;;50.22;;
26062;SDS011;13837;48.562;12.108;2024-02-26T00:44:06;55.00;;;49.97;;
26062;SDS011;13837;48.562;12.108;2024-02-26T00:46:32;54.67;;;50.08;;
26062;SDS011;13837;48.562;12.108;2024-02-26T00:48:58;54.58;;;49.88;;
26062;SDS011;13837;48.562;12.108;2024-02-26T00:51:25;57.17;;;52.53;;
26062;SDS011;13837;48.562;12.108;2024-02-26T00:53:51;56.33;;;51.72;;
26062;SDS011;13837;48.562;12.108;2024-02-26T00:56:17;55.13;;;50.80;;
26062;SDS011;13837;48.562;12.108;2024-02-26T00:58:43;57.38;;;52.40;;
26062;SDS011;13837;48.562;12.108;2024-02-26T01:01:09;56.10;;;51.65;;
26062;SDS011;13837;48.562;12.108;2024-02-26T01:03:35;57.10;;;52.33;;
26062;SDS011;13837;48.562;12.108;2024-02-26T01:06:02;54.97;;;50.63;;
26062;SDS011;13837;48.562;12.108;2024-02-26T01:08:28;56.33;;;51.67;;
26062;SDS011;13837;48.562;12.108;2024-02-26T01:10:54;55.05;;;50.60;;
26062;SDS011;13837;48.562;12.108;2024-02-26T01:13:20;54.85;;;50.42;;
26062;SDS011;13837;48.562;12.108;2024-02-26T01:15:46;55.50;;;51.05;;
26062;SDS011;13837;48.562;12.108;2024-02-26T01:18:12;57.15;;;52.22;;
26062;SDS011;13837;48.562;12.108;2024-02-26T01:20:38;56.17;;;51.45;;
26062;SDS011;13837;48.562;12.108;2024-02-26T01:23:04;57.22;;;52.75;;
26062;SDS011;13837;48.562;12.108;2024-02-26T01:25:31;57.90;;;52.92;;
26062;SDS011;13837;48.562;12.108;2024-02-26T01:27:57;58.10;;;53.05;;
26062;SDS011;13837;48.562;12.108;2024-02-26T01:30:23;58.38;;;53.42;;
26062;SDS011;13837;48.562;12.108;2024-02-26T01:32:49;57.60;;;52.50;;
26062;SDS011;13837;48.562;12.108;2024-02-26T01:35:15;58.13;;;53.25;;
26062;SDS011;13837;48.562;12.108;2024-02-26T01:37:41;58.80;;;53.72;;
26062;SDS011;13837;48.562;12.108;2024-02-26T01:40:07;58.85;;;53.63;;
26062;SDS011;13837;48.562;12.108;2024-02-26T01:42:34;55.78;;;51.00;;
26062;SDS011;13837;48.562;12.108;2024-02-26T01:45:00;58.20;;;53.25;;
26062;SDS011;13837;48.562;12.108;2024-02-26T01:47:27;60.03;;;54.88;;
26062;SDS011;13837;48.562;12.108;2024-02-26T01:49:53;57.40;;;52.45;;
26062;SDS011;13837;48.562;12.108;2024-02-26T01:52:19;56.28;;;51.33;;
26062;SDS011;13837;48.562;12.108;2024-02-26T01:54:47;57.78;;;52.88;;
26062;SDS011;13837;48.562;12.108;2024-02-26T01:57:13;57.75;;;52.63;;
26062;SDS011;13837;48.562;12.108;2024-02-26T01:59:40;57.42;;;52.85;;
26062;SDS011;13837;48.562;12.108;2024-02-26T02:02:07;57.70;;;52.78;;
26062;SDS011;13837;48.562;12.108;2024-02-26T02:04:36;58.15;;;53.13;;
26062;SDS011;13837;48.562;12.108;2024-02-26T02:07:03;58.83;;;53.40;;
26062;SDS011;13837;48.562;12.108;2024-02-26T02:09:29;59.38;;;54.40;;
26062;SDS011;13837;48.562;12.108;2024-02-26T02:11:55;58.55;;;53.28;;
26062;SDS011;13837;48.562;12.108;2024-02-26T02:14:21;59.85;;;54.45;;
26062;SDS011;13837;48.562;12.108;2024-02-26T02:16:47;59.80;;;54.33;;
26062;SDS011;13837;48.562;12.108;2024-02-26T02:19:14;58.88;;;53.60;;
26062;SDS011;13837;48.562;12.108;2024-02-26T02:21:40;59.25;;;53.90;;
26062;SDS011;13837;48.562;12.108;2024-02-26T02:24:06;59.33;;;54.33;;
26062;SDS011;13837;48.562;12.108;2024-02-26T02:26:32;60.63;;;55.40;;
26062;SDS011;13837;48.562;12.108;2024-02-26T02:28:58;62.92;;;57.33;;
26062;SDS011;13837;48.562;12.108;2024-02-26T02:31:25;61.22;;;55.50;;
26062;SDS011;13837;48.562;12.108;2024-02-26T02:33:52;60.00;;;54.22;;
26062;SDS011;13837;48.562;12.108;2024-02-26T02:36:18;58.08;;;52.83;;
26062;SDS011;13837;48.562;12.108;2024-02-26T02:38:50;59.80;;;53.90;;
26062;SDS011;13837;48.562;12.108;2024-02-26T02:41:17;58.90;;;53.90;;
26062;SDS011;13837;48.562;12.108;2024-02-26T02:43:43;57.50;;;52.40;;
26062;SDS011;13837;48.562;12.108;2024-02-26T02:46:09;59.53;;;54.22;;
26062;SDS011;13837;48.562;12.108;2024-02-26T02:48:38;60.70;;;55.25;;
26062;SDS011;13837;48.562;12.108;2024-02-26T02:51:04;61.45;;;55.97;;
26062;SDS011;13837;48.562;12.108;2024-02-26T02:53:30;60.17;;;54.50;;
26062;SDS011;13837;48.562;12.108;2024-02-26T02:55:56;58.72;;;53.55;;
26062;SDS011;13837;48.562;12.108;2024-02-26T02:58:22;59.05;;;53.70;;
26062;SDS011;13837;48.562;12.108;2024-02-26T03:00:49;59.92;;;54.47;;
26062;SDS011;13837;48.562;12.108;2024-02-26T03:03:15;58.03;;;52.80;;
26062;SDS011;13837;48.562;12.108;2024-02-26T03:05:41;60.08;;;54.67;;
26062;SDS011;13837;48.562;12.108;2024-02-26T03:08:07;60.05;;;54.20;;
26062;SDS011;13837;48.562;12.108;2024-02-26T03:10:33;59.78;;;54.58;;
26062;SDS011;13837;48.562;12.108;2024-02-26T03:12:59;61.50;;;55.75;;
26062;SDS011;13837;48.562;12.108;2024-02-26T03:15:25;60.67;;;55.22;;
26062;SDS011;13837;48.562;12.108;2024-02-26T03:17:51;60.72;;;55.00;;
26062;SDS011;13837;48.562;12.108;2024-02-26T03:20:17;60.50;;;54.92;;
26062;SDS011;13837;48.562;12.108;2024-02-26T03:22:44;59.80;;;54.80;;
26062;SDS011;13837;48.562;12.108;2024-02-26T03:25:10;60.22;;;54.88;;
26062;SDS011;13837;48.562;12.108;2024-02-26T03:27:36;63.30;;;57.30;;
26062;SDS011;13837;48.562;12.108;2024-02-26T03:30:03;61.97;;;56.38;;
26062;SDS011;13837;48.562;12.108;2024-02-26T03:32:29;61.22;;;55.65;;
26062;SDS011;13837;48.562;12.108;2024-02-26T03:34:55;61.97;;;56.08;;
26062;SDS011;13837;48.562;12.108;2024-02-26T03:37:21;61.08;;;55.45;;
26062;SDS011;13837;48.562;12.108;2024-02-26T03:39:47;62.05;;;56.38;;
26062;SDS011;13837;48.562;12.108;2024-02-26T03:42:13;61.80;;;56.08;;
26062;SDS011;13837;48.562;12.108;2024-02-26T03:44:39;62.35;;;56.42;;
26062;SDS011;13837;48.562;12.108;2024-02-26T03:47:05;63.70;;;57.90;;
26062;SDS011;13837;48.562;12.108;2024-02-26T03:49:31;63.85;;;57.53;;
26062;SDS011;13837;48.562;12.108;2024-02-26T03:51:57;66.03;;;60.08;;
26062;SDS011;13837;48.562;12.108;2024-02-26T03:54:23;64.95;;;58.95;;
26062;SDS011;13837;48.562;12.108;2024-02-26T03:56:49;63.95;;;57.75;;
26062;SDS011;13837;48.562;12.108;2024-02-26T03:59:15;64.95;;;58.65;;
26062;SDS011;13837;48.562;12.108;2024-02-26T04:01:48;65.72;;;59.63;;
26062;SDS011;13837;48.562;12.108;2024-02-26T04:04:14;66.88;;;60.22;;
26062;SDS011;13837;48.562;12.108;2024-02-26T04:06:43;65.57;;;59.22;;
26062;SDS011;13837;48.562;12.108;2024-02-26T04:09:10;65.47;;;58.97;;
26062;SDS011;13837;48.562;12.108;2024-02-26T04:11:36;67.68;;;60.85;;
26062;SDS011;13837;48.562;12.108;2024-02-26T04:14:02;66.00;;;59.58;;
26062;SDS011;13837;48.562;12.108;2024-02-26T04:16:28;67.43;;;60.78;;
26062;SDS011;13837;48.562;12.108;2024-02-26T04:18:55;65.78;;;59.33;;
26062;SDS011;13837;48.562;12.108;2024-02-26T04:21:21;67.50;;;61.25;;
26062;SDS011;13837;48.562;12.108;2024-02-26T04:23:47;68.35;;;61.33;;
26062;SDS011;13837;48.562;12.108;2024-02-26T04:26:14;65.35;;;58.75;;
26062;SDS011;13837;48.562;12.108;2024-02-26T04:28:40;66.75;;;60.38;;
26062;SDS011;13837;48.562;12.108;2024-02-26T04:31:06;67.45;;;61.33;;
26062;SDS011;13837;48.562;12.108;2024-02-26T04:33:34;67.45;;;60.65;;
26062;SDS011;13837;48.562;12.108;2024-02-26T04:36:00;70.32;;;63.25;;
26062;SDS011;13837;48.562;12.108;2024-02-26T04:38:26;67.80;;;60.97;;
26062;SDS011;13837;48.562;12.108;2024-02-26T04:40:52;67.97;;;61.22;;
26062;SDS011;13837;48.562;12.108;2024-02-26T04:43:19;66.97;;;60.13;;
26062;SDS011;13837;48.562;12.108;2024-02-26T04:45:45;68.82;;;62.08;;
26062;SDS011;13837;48.562;12.108;2024-02-26T04:48:11;68.88;;;61.95;;
26062;SDS011;13837;48.562;12.108;2024-02-26T04:50:37;67.15;;;60.78;;
26062;SDS011;13837;48.562;12.108;2024-02-26T04:53:03;68.00;;;61.13;;
26062;SDS011;13837;48.562;12.108;2024-02-26T04:55:29;68.35;;;61.47;;
26062;SDS011;13837;48.562;12.108;2024-02-26T04:57:55;69.00;;;62.13;;
26062;SDS011;13837;48.562;12.108;2024-02-26T05:00:21;67.43;;;60.65;;
26062;SDS011;13837;48.562;12.108;2024-02-26T05:02:47;67.57;;;61.30;;
26062;SDS011;13837;48.562;12.108;2024-02-26T05:05:13;69.78;;;62.50;;
26062;SDS011;13837;48.562;12.108;2024-02-26T05:07:40;66.88;;;60.17;;
26062;SDS011;13837;48.562;12.108;2024-02-26T05:10:07;67.82;;;61.55;;
26062;SDS011;13837;48.562;12.108;2024-02-26T05:12:33;69.32;;;62.67;;
26062;SDS011;13837;48.562;12.108;2024-02-26T05:15:01;69.90;;;63.17;;
26062;SDS011;13837;48.562;12.108;2024-02-26T05:17:27;64.28;;;58.13;;
26062;SDS011;13837;48.562;12.108;2024-02-26T05:19:53;66.65;;;59.92;;
26062;SDS011;13837;48.562;12.108;2024-02-26T05:22:19;64.93;;;58.85;;
26062;SDS011;13837;48.562;12.108;2024-02-26T05:24:45;64.93;;;58.63;;
26062;SDS011;13837;48.562;12.108;2024-02-26T05:27:11;65.25;;;59.00;;
26062;SDS011;13837;48.562;12.108;2024-02-26T05:29:37;66.38;;;60.25;;
26062;SDS011;13837;48.562;12.108;2024-02-26T05:32:04;67.07;;;60.70;;
26062;SDS011;13837;48.562;12.108;2024-02-26T05:34:30;65.95;;;59.60;;
26062;SDS011;13837;48.562;12.108;2024-02-26T05:36:57;66.82;;;60.42;;
26062;SDS011;13837;48.562;12.108;2024-02-26T05:39:23;65.50;;;59.40;;
26062;SDS011;13837;48.562;12.108;2024-02-26T05:41:49;65.75;;;59.10;;
26062;SDS011;13837;48.562;12.108;2024-02-26T05:44:15;66.28;;;60.28;;
26062;SDS011;13837;48.562;12.108;2024-02-26T05:46:41;66.43;;;59.97;;
26062;SDS011;13837;48.562;12.108;2024-02-26T05:49:07;67.13;;;60.35;;
26062;SDS011;13837;48.562;12.108;2024-02-26T05:51:34;64.57;;;58.58;;
26062;SDS011;13837;48.562;12.108;2024-02-26T05:54:00;69.95;;;63.13;;
26062;SDS011;13837;48.562;12.108;2024-02-26T05:56:26;67.18;;;60.72;;
26062;SDS011;13837;48.562;12.108;2024-02-26T05:58:52;67.53;;;61.17;;
26062;SDS011;13837;48.562;12.108;2024-02-26T06:01:19;67.80;;;61.20;;
26062;SDS011;13837;48.562;12.108;2024-02-26T06:03:45;68.38;;;61.85;;
26062;SDS011;13837;48.562;12.108;2024-02-26T06:06:11;68.55;;;61.55;;
26062;SDS011;13837;48.562;12.108;2024-02-26T06:08:40;68.78;;;62.28;;
26062;SDS011;13837;48.562;12.108;2024-02-26T06:11:06;67.25;;;60.92;;
26062;SDS011;13837;48.562;12.108;2024-02-26T06:13:32;67.88;;;61.55;;
26062;SDS011;13837;48.562;12.108;2024-02-26T06:15:59;69.80;;;63.47;;
26062;SDS011;13837;48.562;12.108;2024-02-26T06:18:25;68.68;;;62.58;;
26062;SDS011;13837;48.562;12.108;2024-02-26T06:20:51;68.75;;;62.03;;
26062;SDS011;13837;48.562;12.108;2024-02-26T06:23:17;69.38;;;62.40;;
26062;SDS011;13837;48.562;12.108;2024-02-26T06:25:43;67.72;;;61.28;;
26062;SDS011;13837;48.562;12.108;2024-02-26T06:28:09;65.65;;;59.53;;
26062;SDS011;13837;48.562;12.108;2024-02-26T06:30:35;67.10;;;60.40;;
26062;SDS011;13837;48.562;12.108;2024-02-26T06:33:01;66.28;;;60.17;;
26062;SDS011;13837;48.562;12.108;2024-02-26T06:35:28;66.63;;;59.88;;
26062;SDS011;13837;48.562;12.108;2024-02-26T06:37:54;65.40;;;59.58;;
26062;SDS011;13837;48.562;12.108;2024-02-26T06:40:20;66.35;;;59.80;;
26062;SDS011;13837;48.562;12.108;2024-02-26T06:42:46;63.47;;;57.45;;
26062;SDS011;13837;48.562;12.108;2024-02-26T06:45:12;62.65;;;56.53;;
26062;SDS011;13837;48.562;12.108;2024-02-26T06:47:38;60.75;;;54.90;;
26062;SDS011;13837;48.562;12.108;2024-02-26T06:50:04;61.38;;;55.67;;
26062;SDS011;13837;48.562;12.108;2024-02-26T06:52:30;60.03;;;54.30;;
26062;SDS011;13837;48.562;12.108;2024-02-26T06:54:56;57.58;;;52.40;;
26062;SDS011;13837;48.562;12.108;2024-02-26T06:57:22;57.08;;;52.28;;
26062;SDS011;13837;48.562;12.108;2024-02-26T06:59:49;56.65;;;51.45;;
26062;SDS011;13837;48.562;12.108;2024-02-26T07:02:16;56.55;;;51.78;;
26062;SDS011;13837;48.562;12.108;2024-02-26T07:04:42;57.45;;;52.35;;
26062;SDS011;13837;48.562;12.108;2024-02-26T07:07:08;55.58;;;50.75;;
26062;SDS011;13837;48.562;12.108;2024-02-26T07:09:35;56.75;;;51.95;;
26062;SDS011;13837;48.562;12.108;2024-02-26T07:12:01;57.08;;;51.80;;
26062;SDS011;13837;48.562;12.108;2024-02-26T07:14:28;56.22;;;51.28;;
26062;SDS011;13837;48.562;12.108;2024-02-26T07:16:54;57.88;;;52.72;;
26062;SDS011;13837;48.562;12.108;2024-02-26T07:19:20;55.95;;;51.10;;
26062;SDS011;13837;48.562;12.108;2024-02-26T07:21:46;58.83;;;53.80;;
26062;SDS011;13837;48.562;12.108;2024-02-26T07:24:12;59.15;;;53.75;;
26062;SDS011;13837;48.562;12.108;2024-02-26T07:26:38;58.67;;;53.33;;
26062;SDS011;13837;48.562;12.108;2024-02-26T07:29:04;59.75;;;54.40;;
26062;SDS011;13837;48.562;12.108;2024-02-26T07:31:30;59.10;;;53.85;;
26062;SDS011;13837;48.562;12.108;2024-02-26T07:33:56;60.05;;;54.75;;
26062;SDS011;13837;48.562;12.108;2024-02-26T07:36:22;59.90;;;54.25;;
26062;SDS011;13837;48.562;12.108;2024-02-26T07:38:48;58.20;;;52.88;;
26062;SDS011;13837;48.562;12.108;2024-02-26T07:41:14;57.55;;;52.55;;
26062;SDS011;13837;48.562;12.108;2024-02-26T07:43:41;56.63;;;51.63;;
26062;SDS011;13837;48.562;12.108;2024-02-26T07:46:07;55.67;;;50.95;;
26062;SDS011;13837;48.562;12.108;2024-02-26T07:48:33;54.60;;;49.83;;
26062;SDS011;13837;48.562;12.108;2024-02-26T07:50:59;55.28;;;50.55;;
26062;SDS011;13837;48.562;12.108;2024-02-26T07:53:25;53.85;;;49.33;;
26062;SDS011;13837;48.562;12.108;2024-02-26T07:55:51;52.90;;;48.42;;
26062;SDS011;13837;48.562;12.108;2024-02-26T07:58:18;52.28;;;47.85;;
26062;SDS011;13837;48.562;12.108;2024-02-26T08:00:44;52.28;;;47.90;;
26062;SDS011;13837;48.562;12.108;2024-02-26T08:03:11;50.90;;;46.65;;
26062;SDS011;13837;48.562;12.108;2024-02-26T08:05:38;51.20;;;46.67;;
26062;SDS011;13837;48.562;12.108;2024-02-26T08:08:06;50.95;;;46.85;;
26062;SDS011;13837;48.562;12.108;2024-02-26T08:10:32;50.75;;;46.78;;
26062;SDS011;13837;48.562;12.108;2024-02-26T08:12:58;52.38;;;47.78;;
26062;SDS011;13837;48.562;12.108;2024-02-26T08:15:33;51.08;;;46.90;;
26062;SDS011;13837;48.562;12.108;2024-02-26T08:20:27;47.80;;;43.97;;
26062;SDS011;13837;48.562;12.108;2024-02-26T08:22:54;46.60;;;43.10;;
26062;SDS011;13837;48.562;12.108;2024-02-26T08:25:20;46.25;;;42.58;;
26062;SDS011;13837;48.562;12.108;2024-02-26T08:27:46;46.88;;;43.15;;
26062;SDS011;13837;48.562;12.108;2024-02-26T08:30:13;46.33;;;42.60;;
26062;SDS011;13837;48.562;12.108;2024-02-26T08:32:41;43.97;;;40.65;;
26062;SDS011;13837;48.562;12.108;2024-02-26T08:35:08;43.08;;;39.90;;
26062;SDS011;13837;48.562;12.108;2024-02-26T08:37:34;42.88;;;39.47;;
26062;SDS011;13837;48.562;12.108;2024-02-26T08:40:00;41.38;;;38.38;;
26062;SDS011;13837;48.562;12.108;2024-02-26T08:42:26;41.25;;;38.05;;
26062;SDS011;13837;48.562;12.108;2024-02-26T08:44:52;40.53;;;37.42;;
26062;SDS011;13837;48.562;12.108;2024-02-26T08:47:19;40.08;;;37.08;;
26062;SDS011;13837;48.562;12.108;2024-02-26T08:49:46;41.13;;;38.03;;
26062;SDS011;13837;48.562;12.108;2024-02-26T08:52:12;40.03;;;37.22;;
26062;SDS011;13837;48.562;12.108;2024-02-26T08:54:39;39.20;;;36.40;;
26062;SDS011;13837;48.562;12.108;2024-02-26T08:57:05;40.50;;;37.22;;
26062;SDS011;13837;48.562;12.108;2024-02-26T08:59:31;37.95;;;35.45;;
26062;SDS011;13837;48.562;12.108;2024-02-26T09:01:57;38.67;;;35.97;;
26062;SDS011;13837;48.562;12.108;2024-02-26T09:04:24;37.45;;;34.80;;
26062;SDS011;13837;48.562;12.108;2024-02-26T09:06:51;37.13;;;34.33;;
26062;SDS011;13837;48.562;12.108;2024-02-26T09:09:17;37.40;;;34.70;;
26062;SDS011;13837;48.562;12.108;2024-02-26T09:11:43;36.30;;;33.80;;
26062;SDS011;13837;48.562;12.108;2024-02-26T09:14:09;36.17;;;33.35;;
26062;SDS011;13837;48.562;12.108;2024-02-26T09:16:35;35.45;;;33.08;;
26062;SDS011;13837;48.562;12.108;2024-02-26T09:19:01;35.00;;;32.20;;
26062;SDS011;13837;48.562;12.108;2024-02-26T09:21:28;34.90;;;32.67;;
26062;SDS011;13837;48.562;12.108;2024-02-26T09:23:57;35.72;;;33.42;;
26062;SDS011;13837;48.562;12.108;2024-02-26T09:26:24;33.55;;;31.20;;
26062;SDS011;13837;48.562;12.108;2024-02-26T09:28:52;34.15;;;31.75;;
26062;SDS011;13837;48.562;12.108;2024-02-26T09:31:18;33.88;;;31.48;;
26062;SDS011;13837;48.562;12.108;2024-02-26T09:33:44;33.58;;;31.15;;
26062;SDS011;13837;48.562;12.108;2024-02-26T09:36:10;34.25;;;31.88;;
26062;SDS011;13837;48.562;12.108;2024-02-26T09:38:37;32.88;;;30.65;;
26062;SDS011;13837;48.562;12.108;2024-02-26T09:41:04;33.00;;;30.65;;
26062;SDS011;13837;48.562;12.108;2024-02-26T09:43:34;32.25;;;29.95;;
26062;SDS011;13837;48.562;12.108;2024-02-26T09:46:01;33.85;;;31.40;;
26062;SDS011;13837;48.562;12.108;2024-02-26T09:48:28;32.25;;;30.10;;
26062;SDS011;13837;48.562;12.108;2024-02-26T09:50:54;32.20;;;29.90;;
26062;SDS011;13837;48.562;12.108;2024-02-26T09:53:21;32.20;;;29.80;;
26062;SDS011;13837;48.562;12.108;2024-02-26T09:55:47;33.50;;;31.17;;
26062;SDS011;13837;48.562;12.108;2024-02-26T09:58:13;32.55;;;30.40;;
26062;SDS011;13837;48.562;12.108;2024-02-26T10:00:43;33.00;;;30.77;;
26062;SDS011;13837;48.562;12.108;2024-02-26T10:03:12;34.63;;;32.30;;
26062;SDS011;13837;48.562;12.108;2024-02-26T10:05:41;31.38;;;29.08;;
26062;SDS011;13837;48.562;12.108;2024-02-26T10:08:08;31.98;;;29.60;;
26062;SDS011;13837;48.562;12.108;2024-02-26T10:10:34;32.28;;;30.08;;
26062;SDS011;13837;48.562;12.108;2024-02-26T10:13:02;32.65;;;30.15;;
26062;SDS011;13837;48.562;12.108;2024-02-26T10:15:35;33.15;;;30.77;;
26062;SDS011;13837;48.562;12.108;2024-02-26T10:18:03;33.75;;;31.15;;
26062;SDS011;13837;48.562;12.108;2024-02-26T10:20:29;32.60;;;30.30;;
26062;SDS011;13837;48.562;12.108;2024-02-26T10:22:56;31.45;;;29.08;;
26062;SDS011;13837;48.562;12.108;2024-02-26T10:25:22;31.15;;;29.05;;
26062;SDS011;13837;48.562;12.108;2024-02-26T10:27:49;30.92;;;28.70;;
26062;SDS011;13837;48.562;12.108;2024-02-26T10:30:21;30.95;;;28.48;;
26062;SDS011;13837;48.562;12.108;2024-02-26T10:32:48;30.15;;;28.15;;
26062;SDS011;13837;48.562;12.108;2024-02-26T10:35:15;29.42;;;27.45;;
26062;SDS011;13837;48.562;12.108;2024-02-26T10:37:42;29.17;;;27.02;;
26062;SDS011;13837;48.562;12.108;2024-02-26T10:40:09;30.27;;;27.90;;
26062;SDS011;13837;48.562;12.108;2024-02-26T10:42:36;28.25;;;26.48;;
26062;SDS011;13837;48.562;12.108;2024-02-26T10:45:03;29.75;;;27.67;;
26062;SDS011;13837;48.562;12.108;2024-02-26T10:47:29;27.88;;;25.88;;
26062;SDS011;13837;48.562;12.108;2024-02-26T10:49:56;28.67;;;26.67;;
26062;SDS011;13837;48.562;12.108;2024-02-26T10:52:22;28.25;;;26.33;;
26062;SDS011;13837;48.562;12.108;2024-02-26T10:54:50;27.92;;;25.92;;
26062;SDS011;13837;48.562;12.108;2024-02-26T10:57:19;28.60;;;26.58;;
26062;SDS011;13837;48.562;12.108;2024-02-26T10:59:46;27.90;;;26.00;;
26062;SDS011;13837;48.562;12.108;2024-02-26T11:02:13;28.88;;;26.88;;
26062;SDS011;13837;48.562;12.108;2024-02-26T11:04:39;27.42;;;25.63;;
26062;SDS011;13837;48.562;12.108;2024-02-26T11:07:05;27.17;;;25.27;;
26062;SDS011;13837;48.562;12.108;2024-02-26T11:09:33;28.25;;;26.35;;
26062;SDS011;13837;48.562;12.108;2024-02-26T11:12:00;28.38;;;26.13;;
26062;SDS011;13837;48.562;12.108;2024-02-26T11:14:27;28.38;;;26.38;;
26062;SDS011;13837;48.562;12.108;2024-02-26T11:16:56;29.10;;;26.90;;
26062;SDS011;13837;48.562;12.108;2024-02-26T11:19:23;27.83;;;25.88;;
26062;SDS011;13837;48.562;12.108;2024-02-26T11:21:50;28.83;;;26.52;;
26062;SDS011;13837;48.562;12.108;2024-02-26T11:24:16;28.40;;;26.20;;
26062;SDS011;13837;48.562;12.108;2024-02-26T11:26:48;29.27;;;27.17;;
26062;SDS011;13837;48.562;12.108;2024-02-26T11:29:17;28.13;;;26.13;;
26062;SDS011;13837;48.562;12.108;2024-02-26T11:31:44;27.48;;;25.67;;
26062;SDS011;13837;48.562;12.108;2024-02-26T11:34:10;27.50;;;25.67;;
26062;SDS011;13837;48.562;12.108;2024-02-26T11:36:37;28.38;;;26.42;;
26062;SDS011;13837;48.562;12.108;2024-02-26T11:39:04;28.02;;;25.90;;
26062;SDS011;13837;48.562;12.108;2024-02-26T11:41:31;27.83;;;25.98;;
26062;SDS011;13837;48.562;12.108;2024-02-26T11:43:58;28.75;;;26.85;;
26062;SDS011;13837;48.562;12.108;2024-02-26T11:46:29;28.08;;;26.08;;
26062;SDS011;13837;48.562;12.108;2024-02-26T11:48:56;27.02;;;25.33;;
26062;SDS011;13837;48.562;12.108;2024-02-26T11:51:27;28.08;;;25.80;;
26062;SDS011;13837;48.562;12.108;2024-02-26T11:53:53;26.30;;;24.58;;
26062;SDS011;13837;48.562;12.108;2024-02-26T11:56:22;27.25;;;25.50;;
26062;SDS011;13837;48.562;12.108;2024-02-26T11:58:49;27.40;;;25.52;;
26062;SDS011;13837;48.562;12.108;2024-02-26T12:04:07;26.05;;;24.45;;
26062;SDS011;13837;48.562;12.108;2024-02-26T12:06:47;26.08;;;24.27;;
26062;SDS011;13837;48.562;12.108;2024-02-26T12:09:16;25.85;;;24.25;;
26062;SDS011;13837;48.562;12.108;2024-02-26T12:11:56;26.05;;;24.25;;
26062;SDS011;13837;48.562;12.108;2024-02-26T12:14:24;26.08;;;24.35;;
26062;SDS011;13837;48.562;12.108;2024-02-26T12:16:51;25.35;;;23.80;;
26062;SDS011;13837;48.562;12.108;2024-02-26T12:19:17;25.15;;;23.35;;
26062;SDS011;13837;48.562;12.108;2024-02-26T12:21:44;25.55;;;23.77;;
26062;SDS011;13837;48.562;12.108;2024-02-26T12:24:14;24.92;;;23.42;;
26062;SDS011;13837;48.562;12.108;2024-02-26T12:26:43;24.10;;;22.70;;
26062;SDS011;13837;48.562;12.108;2024-02-26T12:29:09;23.40;;;22.00;;
26062;SDS011;13837;48.562;12.108;2024-02-26T12:31:36;23.67;;;22.08;;
26062;SDS011;13837;48.562;12.108;2024-02-26T12:34:03;23.40;;;21.90;;
26062;SDS011;13837;48.562;12.108;2024-02-26T12:36:29;22.60;;;21.20;;
26062;SDS011;13837;48.562;12.108;2024-02-26T12:38:56;22.77;;;21.48;;
26062;SDS011;13837;48.562;12.108;2024-02-26T12:41:22;21.55;;;20.25;;
26062;SDS011;13837;48.562;12.108;2024-02-26T12:43:48;21.17;;;20.02;;
26062;SDS011;13837;48.562;12.108;2024-02-26T12:46:14;21.20;;;19.95;;
26062;SDS011;13837;48.562;12.108;2024-02-26T12:48:44;20.27;;;19.08;;
26062;SDS011;13837;48.562;12.108;2024-02-26T12:51:11;20.45;;;19.35;;
26062;SDS011;13837;48.562;12.108;2024-02-26T12:53:38;20.00;;;18.52;;
26062;SDS011;13837;48.562;12.108;2024-02-26T12:56:05;20.23;;;19.10;;
26062;SDS011;13837;48.562;12.108;2024-02-26T12:58:32;19.92;;;18.73;;
26062;SDS011;13837;48.562;12.108;2024-02-26T13:00:59;19.83;;;18.60;;
26062;SDS011;13837;48.562;12.108;2024-02-26T13:03:25;19.70;;;18.30;;
26062;SDS011;13837;48.562;12.108;2024-02-26T13:05:52;18.75;;;17.55;;
26062;SDS011;13837;48.562;12.108;2024-02-26T13:08:19;18.60;;;17.60;;
26062;SDS011;13837;48.562;12.108;2024-02-26T13:10:45;18.52;;;17.23;;
26062;SDS011;13837;48.562;12.108;2024-02-26T13:13:14;17.65;;;16.65;;
26062;SDS011;13837;48.562;12.108;2024-02-26T13:18:10;17.17;;;16.00;;
26062;SDS011;13837;48.562;12.108;2024-02-26T13:20:37;16.98;;;15.77;;
26062;SDS011;13837;48.562;12.108;2024-02-26T13:23:05;16.50;;;15.40;;
26062;SDS011;13837;48.562;12.108;2024-02-26T13:25:32;15.30;;;14.20;;
26062;SDS011;13837;48.562;12.108;2024-02-26T13:28:07;15.55;;;14.63;;
26062;SDS011;13837;48.562;12.108;2024-02-26T13:30:34;14.60;;;13.80;;
26062;SDS011;13837;48.562;12.108;2024-02-26T13:33:10;15.07;;;14.00;;
26062;SDS011;13837;48.562;12.108;2024-02-26T13:35:36;14.88;;;13.90;;
26062;SDS011;13837;48.562;12.108;2024-02-26T13:38:04;14.82;;;13.93;;
26062;SDS011;13837;48.562;12.108;2024-02-26T13:40:31;14.35;;;13.40;;
26062;SDS011;13837;48.562;12.108;2024-02-26T13:42:57;14.63;;;13.63;;
26062;SDS011;13837;48.562;12.108;2024-02-26T13:45:23;14.90;;;13.70;;
26062;SDS011;13837;48.562;12.108;2024-02-26T13:47:49;14.88;;;13.98;;
26062;SDS011;13837;48.562;12.108;2024-02-26T13:50:15;14.60;;;13.70;;
26062;SDS011;13837;48.562;12.108;2024-02-26T13:52:46;15.32;;;14.40;;
26062;SDS011;13837;48.562;12.108;2024-02-26T13:55:12;14.20;;;13.43;;
26062;SDS011;13837;48.562;12.108;2024-02-26T13:57:39;14.57;;;13.73;;
26062;SDS011;13837;48.562;12.108;2024-02-26T14:00:06;14.27;;;13.38;;
26062;SDS011;13837;48.562;12.108;2024-02-26T14:02:37;14.02;;;13.07;;
26062;SDS011;13837;48.562;12.108;2024-02-26T14:05:03;13.82;;;13.15;;
26062;SDS011;13837;48.562;12.108;2024-02-26T14:07:29;14.57;;;13.77;;
26062;SDS011;13837;48.562;12.108;2024-02-26T14:09:58;14.35;;;13.57;;
26062;SDS011;13837;48.562;12.108;2024-02-26T14:12:24;14.75;;;13.95;;